首页
METAR-TAF:

METAR-TAF

机场 :

阿根廷港, 福克兰群岛

纬度: 51-49S, 经度: 058-27W, 海拔: 74米

当前天气观测

该预报发布于18分钟前的14:50 UTC
风速22节,风向西
温度 15°C
湿度 51%
气压 1004 hPa
能见度10公里或以上
少量云层高于3800英尺

METAR: EGYP 201450Z 26022KT 9999 FEW038 15/05 Q1004 BLU NOSIG

时间: 12:08 (15:08 UTC)

预报

该预报发布于2小时和0分钟前的13:08 UTC
预报有效从20日的 15点(UTC)到 21日的 09点(UTC)
风速22节,风向西转西南,有时为32节阵风
能见度10公里或以上
少量云层高于2500英尺
成为
从 20日的 20点(UTC)到 20日的 23点(UTC)
风速15节,风向西南
成为
从 21日的 00点(UTC)到 21日的 03点(UTC)
风速15节,风向西北
成为
从 21日的 03点(UTC)到 21日的 06点(UTC)
风速15节,风向北转西北,有时为25节阵风
几率 40% :
短暂存在
从 21日的 06点(UTC)到 21日的 09点(UTC)
风速20节,风向,有时为35节阵风
几率 30% :
短暂存在
从 21日的 06点(UTC)到 21日的 09点(UTC)
风速5节,风向多变
散云层高于700英尺

TAF: EGYP 201308Z 2015/2109 24022G32KT 9999 FEW025 BECMG 2020/2023 23015KT BECMG 2100/2103 31015KT BECMG 2103/2106 33015G25KT 520003 PROB40 TEMPO 2106/2109 35020G35KT 530003 PROB30 TEMPO 2106/2109 VRB05KT SCT007 560003

超过4000个机场的气象观测和天气预报(METAR&TAF报告)。

可查询的气象台以黄色和红色小点在地图上表示。

将鼠标移到小点上方,可查看气象台名称。

然后点击查看天气观测和预报。

如需切换地图:点击带黑十字的绿色按钮放大地图;点击带横线的绿色按钮缩小地图;或者点击绿色箭头查看邻近地区的地图。


METAR-TAF: